sensor_id;sensor_type;location;lat;lon;timestamp;pressure;altitude;pressure_sealevel;temperature;humidity
69173;BME280;56280;49.662;8.408;2023-05-07T00:00:43;100628.22;;;15.98;71.72
69173;BME280;56280;49.662;8.408;2023-05-07T00:03:08;100632.91;;;15.96;72.26
69173;BME280;56280;49.662;8.408;2023-05-07T00:05:34;100609.41;;;15.90;72.00
69173;BME280;56280;49.662;8.408;2023-05-07T00:07:59;100623.84;;;15.89;72.27
69173;BME280;56280;49.662;8.408;2023-05-07T00:10:25;100621.56;;;15.76;72.94
69173;BME280;56280;49.662;8.408;2023-05-07T00:12:50;100601.47;;;15.62;72.98
69173;BME280;56280;49.662;8.408;2023-05-07T00:15:16;100606.69;;;15.64;73.63
69173;BME280;56280;49.662;8.408;2023-05-07T00:17:41;100606.16;;;15.60;73.87
69173;BME280;56280;49.662;8.408;2023-05-07T00:20:06;100603.94;;;15.38;74.87
69173;BME280;56280;49.662;8.408;2023-05-07T00:22:32;100592.59;;;15.44;74.58
69173;BME280;56280;49.662;8.408;2023-05-07T00:24:58;100615.75;;;15.71;74.53
69173;BME280;56280;49.662;8.408;2023-05-07T00:27:24;100614.78;;;15.90;73.22
69173;BME280;56280;49.662;8.408;2023-05-07T00:29:50;100608.69;;;16.06;72.22
69173;BME280;56280;49.662;8.408;2023-05-07T00:32:15;100607.13;;;16.21;71.99
69173;BME280;56280;49.662;8.408;2023-05-07T00:34:41;100600.81;;;16.31;70.81
69173;BME280;56280;49.662;8.408;2023-05-07T00:37:06;100599.28;;;16.63;69.69
69173;BME280;56280;49.662;8.408;2023-05-07T00:39:35;100603.38;;;16.75;69.18
69173;BME280;56280;49.662;8.408;2023-05-07T00:42:00;100577.63;;;16.56;68.88
69173;BME280;56280;49.662;8.408;2023-05-07T00:44:26;100613.63;;;16.45;69.66
69173;BME280;56280;49.662;8.408;2023-05-07T00:46:52;100615.66;;;16.17;71.15
69173;BME280;56280;49.662;8.408;2023-05-07T00:49:18;100619.41;;;15.62;73.32
69173;BME280;56280;49.662;8.408;2023-05-07T00:51:44;100599.94;;;15.06;75.63
69173;BME280;56280;49.662;8.408;2023-05-07T00:54:10;100591.47;;;14.83;76.94
69173;BME280;56280;49.662;8.408;2023-05-07T00:56:36;100608.84;;;14.97;77.53
69173;BME280;56280;49.662;8.408;2023-05-07T00:59:02;100609.47;;;15.08;76.63
69173;BME280;56280;49.662;8.408;2023-05-07T01:01:28;100597.78;;;14.91;77.08
69173;BME280;56280;49.662;8.408;2023-05-07T01:03:53;100596.81;;;14.83;77.33
69173;BME280;56280;49.662;8.408;2023-05-07T01:06:19;100589.00;;;14.99;77.37
69173;BME280;56280;49.662;8.408;2023-05-07T01:08:46;100598.09;;;15.06;76.98
69173;BME280;56280;49.662;8.408;2023-05-07T01:11:13;100596.03;;;15.00;76.87
69173;BME280;56280;49.662;8.408;2023-05-07T01:13:39;100600.38;;;15.01;77.15
69173;BME280;56280;49.662;8.408;2023-05-07T01:16:06;100599.94;;;15.06;77.00
69173;BME280;56280;49.662;8.408;2023-05-07T01:18:31;100594.28;;;15.09;76.99
69173;BME280;56280;49.662;8.408;2023-05-07T01:20:58;100575.19;;;15.04;76.91
69173;BME280;56280;49.662;8.408;2023-05-07T01:23:25;100579.91;;;15.10;76.24
69173;BME280;56280;49.662;8.408;2023-05-07T01:25:52;100597.50;;;15.30;75.82
69173;BME280;56280;49.662;8.408;2023-05-07T01:28:18;100584.94;;;15.13;75.97
69173;BME280;56280;49.662;8.408;2023-05-07T01:30:47;100581.97;;;15.16;76.29
69173;BME280;56280;49.662;8.408;2023-05-07T01:33:15;100568.44;;;15.00;76.48
69173;BME280;56280;49.662;8.408;2023-05-07T01:35:43;100573.44;;;14.67;77.81
69173;BME280;56280;49.662;8.408;2023-05-07T01:38:11;100579.81;;;14.46;79.39
69173;BME280;56280;49.662;8.408;2023-05-07T01:40:37;100586.22;;;14.26;80.66
69173;BME280;56280;49.662;8.408;2023-05-07T01:43:03;100579.78;;;14.18;80.74
69173;BME280;56280;49.662;8.408;2023-05-07T01:45:30;100582.47;;;14.18;81.85
69173;BME280;56280;49.662;8.408;2023-05-07T01:47:56;100568.28;;;14.08;81.75
69173;BME280;56280;49.662;8.408;2023-05-07T01:50:23;100585.53;;;14.23;81.87
69173;BME280;56280;49.662;8.408;2023-05-07T01:52:50;100575.31;;;14.09;81.99
69173;BME280;56280;49.662;8.408;2023-05-07T01:55:15;100589.84;;;14.34;81.65
69173;BME280;56280;49.662;8.408;2023-05-07T01:57:41;100573.66;;;14.36;81.10
69173;BME280;56280;49.662;8.408;2023-05-07T02:00:06;100564.63;;;14.47;80.96
69173;BME280;56280;49.662;8.408;2023-05-07T02:02:33;100577.63;;;14.69;80.02
69173;BME280;56280;49.662;8.408;2023-05-07T02:04:59;100573.28;;;14.68;79.81
69173;BME280;56280;49.662;8.408;2023-05-07T02:07:24;100584.09;;;14.94;78.74
69173;BME280;56280;49.662;8.408;2023-05-07T02:09:50;100572.94;;;14.99;77.98
69173;BME280;56280;49.662;8.408;2023-05-07T02:12:15;100589.69;;;15.01;77.84
69173;BME280;56280;49.662;8.408;2023-05-07T02:14:40;100574.56;;;14.64;79.09
69173;BME280;56280;49.662;8.408;2023-05-07T02:17:05;100573.78;;;14.44;80.08
69173;BME280;56280;49.662;8.408;2023-05-07T02:19:31;100596.84;;;14.45;80.92
69173;BME280;56280;49.662;8.408;2023-05-07T02:21:56;100588.13;;;14.43;81.45
69173;BME280;56280;49.662;8.408;2023-05-07T02:24:21;100589.09;;;14.42;81.38
69173;BME280;56280;49.662;8.408;2023-05-07T02:26:46;100585.94;;;14.29;82.03
69173;BME280;56280;49.662;8.408;2023-05-07T02:29:11;100573.75;;;14.07;82.81
69173;BME280;56280;49.662;8.408;2023-05-07T02:31:37;100591.47;;;14.17;82.84
69173;BME280;56280;49.662;8.408;2023-05-07T02:34:02;100587.78;;;14.28;82.84
69173;BME280;56280;49.662;8.408;2023-05-07T02:36:27;100602.22;;;14.35;82.13
69173;BME280;56280;49.662;8.408;2023-05-07T02:38:53;100594.81;;;14.19;82.79
69173;BME280;56280;49.662;8.408;2023-05-07T02:41:18;100586.03;;;13.99;83.13
69173;BME280;56280;49.662;8.408;2023-05-07T02:43:43;100605.44;;;13.92;83.49
69173;BME280;56280;49.662;8.408;2023-05-07T02:46:09;100594.63;;;13.83;84.24
69173;BME280;56280;49.662;8.408;2023-05-07T02:48:35;100578.22;;;13.68;84.42
69173;BME280;56280;49.662;8.408;2023-05-07T02:51:01;100612.88;;;13.98;84.38
69173;BME280;56280;49.662;8.408;2023-05-07T02:53:26;100603.34;;;13.85;84.83
69173;BME280;56280;49.662;8.408;2023-05-07T02:55:56;100602.91;;;13.80;85.33
69173;BME280;56280;49.662;8.408;2023-05-07T02:58:22;100595.50;;;13.64;86.13
69173;BME280;56280;49.662;8.408;2023-05-07T03:00:47;100590.94;;;13.84;85.74
69173;BME280;56280;49.662;8.408;2023-05-07T03:03:13;100582.09;;;13.84;85.36
69173;BME280;56280;49.662;8.408;2023-05-07T03:05:39;100599.53;;;13.88;84.96
69173;BME280;56280;49.662;8.408;2023-05-07T03:08:04;100603.22;;;13.58;86.99
69173;BME280;56280;49.662;8.408;2023-05-07T03:10:30;100602.06;;;13.60;87.66
69173;BME280;56280;49.662;8.408;2023-05-07T03:12:55;100584.66;;;13.66;86.77
69173;BME280;56280;49.662;8.408;2023-05-07T03:15:21;100597.84;;;13.87;85.94
69173;BME280;56280;49.662;8.408;2023-05-07T03:17:47;100579.06;;;13.40;87.10
69173;BME280;56280;49.662;8.408;2023-05-07T03:20:12;100571.16;;;13.19;88.58
69173;BME280;56280;49.662;8.408;2023-05-07T03:22:38;100574.81;;;13.08;89.82
69173;BME280;56280;49.662;8.408;2023-05-07T03:25:03;100572.13;;;13.18;89.79
69173;BME280;56280;49.662;8.408;2023-05-07T03:27:29;100561.75;;;13.24;89.84
69173;BME280;56280;49.662;8.408;2023-05-07T03:29:54;100579.22;;;13.48;89.27
69173;BME280;56280;49.662;8.408;2023-05-07T03:32:20;100559.50;;;13.78;88.79
69173;BME280;56280;49.662;8.408;2023-05-07T03:34:45;100569.75;;;13.83;86.66
69173;BME280;56280;49.662;8.408;2023-05-07T03:37:10;100552.03;;;13.82;86.19
69173;BME280;56280;49.662;8.408;2023-05-07T03:39:36;100556.69;;;13.90;86.47
69173;BME280;56280;49.662;8.408;2023-05-07T03:42:01;100563.84;;;13.79;86.77
69173;BME280;56280;49.662;8.408;2023-05-07T03:44:26;100566.06;;;13.94;86.68
69173;BME280;56280;49.662;8.408;2023-05-07T03:46:51;100560.59;;;13.85;86.32
69173;BME280;56280;49.662;8.408;2023-05-07T03:49:17;100562.81;;;14.00;86.75
69173;BME280;56280;49.662;8.408;2023-05-07T03:51:42;100566.53;;;14.27;85.81
69173;BME280;56280;49.662;8.408;2023-05-07T03:54:08;100559.56;;;14.06;85.74
69173;BME280;56280;49.662;8.408;2023-05-07T03:56:33;100574.19;;;14.02;86.01
69173;BME280;56280;49.662;8.408;2023-05-07T03:59:00;100575.63;;;13.96;86.34
69173;BME280;56280;49.662;8.408;2023-05-07T04:01:25;100565.22;;;14.03;86.36
69173;BME280;56280;49.662;8.408;2023-05-07T04:03:50;100565.59;;;14.08;85.90
69173;BME280;56280;49.662;8.408;2023-05-07T04:06:16;100584.13;;;14.57;84.34
69173;BME280;56280;49.662;8.408;2023-05-07T04:08:42;100577.16;;;14.46;83.34
69173;BME280;56280;49.662;8.408;2023-05-07T04:11:07;100588.81;;;14.45;83.59
69173;BME280;56280;49.662;8.408;2023-05-07T04:13:32;100579.63;;;14.30;83.95
69173;BME280;56280;49.662;8.408;2023-05-07T04:15:58;100585.53;;;14.61;83.52
69173;BME280;56280;49.662;8.408;2023-05-07T04:18:23;100576.19;;;14.75;82.28
69173;BME280;56280;49.662;8.408;2023-05-07T04:20:49;100578.06;;;14.92;80.96
69173;BME280;56280;49.662;8.408;2023-05-07T04:23:15;100587.75;;;14.38;82.89
69173;BME280;56280;49.662;8.408;2023-05-07T04:25:40;100583.38;;;14.37;84.20
69173;BME280;56280;49.662;8.408;2023-05-07T04:28:06;100590.06;;;14.51;83.64
69173;BME280;56280;49.662;8.408;2023-05-07T04:30:31;100593.81;;;14.68;83.14
69173;BME280;56280;49.662;8.408;2023-05-07T04:32:57;100572.34;;;14.50;82.29
69173;BME280;56280;49.662;8.408;2023-05-07T04:35:22;100593.84;;;14.86;81.65
69173;BME280;56280;49.662;8.408;2023-05-07T04:37:47;100592.25;;;14.75;81.99
69173;BME280;56280;49.662;8.408;2023-05-07T04:40:13;100596.22;;;14.89;82.00
69173;BME280;56280;49.662;8.408;2023-05-07T04:42:38;100594.72;;;14.86;81.75
69173;BME280;56280;49.662;8.408;2023-05-07T04:45:04;100572.34;;;15.05;80.75
69173;BME280;56280;49.662;8.408;2023-05-07T04:47:30;100580.69;;;14.74;81.42
69173;BME280;56280;49.662;8.408;2023-05-07T04:49:55;100600.47;;;14.54;83.01
69173;BME280;56280;49.662;8.408;2023-05-07T04:52:20;100584.81;;;14.21;84.36
69173;BME280;56280;49.662;8.408;2023-05-07T04:54:45;100612.25;;;14.23;84.95
69173;BME280;56280;49.662;8.408;2023-05-07T04:57:11;100611.41;;;14.13;85.67
69173;BME280;56280;49.662;8.408;2023-05-07T04:59:36;100619.66;;;14.39;85.92
69173;BME280;56280;49.662;8.408;2023-05-07T05:02:02;100598.31;;;14.30;85.79
69173;BME280;56280;49.662;8.408;2023-05-07T05:04:29;100620.91;;;14.45;85.66
69173;BME280;56280;49.662;8.408;2023-05-07T05:06:54;100599.31;;;14.56;86.01
69173;BME280;56280;49.662;8.408;2023-05-07T05:09:20;100619.63;;;14.87;85.03
69173;BME280;56280;49.662;8.408;2023-05-07T05:11:45;100606.38;;;14.85;84.48
69173;BME280;56280;49.662;8.408;2023-05-07T05:14:10;100602.75;;;14.86;84.82
69173;BME280;56280;49.662;8.408;2023-05-07T05:16:35;100626.22;;;14.92;85.61
69173;BME280;56280;49.662;8.408;2023-05-07T05:19:01;100618.28;;;15.01;86.25
69173;BME280;56280;49.662;8.408;2023-05-07T05:21:27;100619.00;;;15.39;84.57
69173;BME280;56280;49.662;8.408;2023-05-07T05:23:52;100617.94;;;15.31;84.09
69173;BME280;56280;49.662;8.408;2023-05-07T05:26:17;100615.34;;;15.40;84.13
69173;BME280;56280;49.662;8.408;2023-05-07T05:28:43;100625.44;;;15.28;84.95
69173;BME280;56280;49.662;8.408;2023-05-07T05:31:08;100611.41;;;15.34;85.29
69173;BME280;56280;49.662;8.408;2023-05-07T05:33:34;100616.91;;;15.32;85.16
69173;BME280;56280;49.662;8.408;2023-05-07T05:35:59;100621.59;;;15.30;85.72
69173;BME280;56280;49.662;8.408;2023-05-07T05:38:24;100619.59;;;15.32;85.12
69173;BME280;56280;49.662;8.408;2023-05-07T05:40:50;100629.91;;;15.09;85.71
69173;BME280;56280;49.662;8.408;2023-05-07T05:43:16;100626.94;;;15.48;85.77
69173;BME280;56280;49.662;8.408;2023-05-07T05:45:41;100630.53;;;15.75;83.87
69173;BME280;56280;49.662;8.408;2023-05-07T05:48:06;100628.78;;;15.66;83.53
69173;BME280;56280;49.662;8.408;2023-05-07T05:50:33;100627.03;;;15.39;85.31
69173;BME280;56280;49.662;8.408;2023-05-07T05:53:00;100642.97;;;15.76;85.03
69173;BME280;56280;49.662;8.408;2023-05-07T05:55:26;100634.94;;;15.76;84.40
69173;BME280;56280;49.662;8.408;2023-05-07T05:57:51;100624.03;;;15.60;84.26
69173;BME280;56280;49.662;8.408;2023-05-07T06:00:17;100639.88;;;15.53;85.02
69173;BME280;56280;49.662;8.408;2023-05-07T06:02:42;100642.63;;;15.61;84.39
69173;BME280;56280;49.662;8.408;2023-05-07T06:05:08;100636.66;;;15.67;83.92
69173;BME280;56280;49.662;8.408;2023-05-07T06:07:33;100622.97;;;15.53;84.33
69173;BME280;56280;49.662;8.408;2023-05-07T06:10:00;100633.53;;;15.54;84.89
69173;BME280;56280;49.662;8.408;2023-05-07T06:12:25;100628.34;;;15.35;85.57
69173;BME280;56280;49.662;8.408;2023-05-07T06:14:51;100637.72;;;15.39;87.53
69173;BME280;56280;49.662;8.408;2023-05-07T06:17:16;100640.09;;;15.42;85.27
69173;BME280;56280;49.662;8.408;2023-05-07T06:19:41;100639.88;;;15.35;86.38
69173;BME280;56280;49.662;8.408;2023-05-07T06:22:07;100632.13;;;15.68;85.41
69173;BME280;56280;49.662;8.408;2023-05-07T06:24:32;100630.72;;;15.56;84.57
69173;BME280;56280;49.662;8.408;2023-05-07T06:26:57;100642.41;;;15.55;84.36
69173;BME280;56280;49.662;8.408;2023-05-07T06:29:24;100648.13;;;15.60;84.24
69173;BME280;56280;49.662;8.408;2023-05-07T06:31:51;100639.25;;;15.95;83.54
69173;BME280;56280;49.662;8.408;2023-05-07T06:34:16;100634.06;;;15.94;82.46
69173;BME280;56280;49.662;8.408;2023-05-07T06:36:42;100649.47;;;16.18;80.95
69173;BME280;56280;49.662;8.408;2023-05-07T06:39:07;100659.72;;;16.22;82.14
69173;BME280;56280;49.662;8.408;2023-05-07T06:41:32;100662.81;;;16.10;82.85
69173;BME280;56280;49.662;8.408;2023-05-07T06:43:58;100649.25;;;16.11;81.63
69173;BME280;56280;49.662;8.408;2023-05-07T06:46:23;100641.25;;;15.93;81.56
69173;BME280;56280;49.662;8.408;2023-05-07T06:48:48;100631.16;;;15.87;82.35
69173;BME280;56280;49.662;8.408;2023-05-07T06:51:14;100639.91;;;15.89;81.28
69173;BME280;56280;49.662;8.408;2023-05-07T06:53:39;100650.69;;;15.97;81.27
69173;BME280;56280;49.662;8.408;2023-05-07T06:56:05;100640.84;;;16.32;82.82
69173;BME280;56280;49.662;8.408;2023-05-07T06:58:31;100653.09;;;16.61;82.06
69173;BME280;56280;49.662;8.408;2023-05-07T07:00:56;100655.69;;;16.45;81.74
69173;BME280;56280;49.662;8.408;2023-05-07T07:03:21;100650.69;;;16.23;81.38
69173;BME280;56280;49.662;8.408;2023-05-07T07:05:47;100654.56;;;16.29;80.34
69173;BME280;56280;49.662;8.408;2023-05-07T07:08:12;100644.91;;;16.36;80.68
69173;BME280;56280;49.662;8.408;2023-05-07T07:10:37;100646.16;;;15.98;82.19
69173;BME280;56280;49.662;8.408;2023-05-07T07:13:03;100647.28;;;15.95;81.56
69173;BME280;56280;49.662;8.408;2023-05-07T07:15:28;100646.31;;;15.96;80.79
69173;BME280;56280;49.662;8.408;2023-05-07T07:17:53;100659.00;;;16.12;79.54
69173;BME280;56280;49.662;8.408;2023-05-07T07:20:19;100652.31;;;16.16;79.90
69173;BME280;56280;49.662;8.408;2023-05-07T07:22:44;100646.53;;;16.03;78.94
69173;BME280;56280;49.662;8.408;2023-05-07T07:25:09;100650.53;;;16.25;81.15
69173;BME280;56280;49.662;8.408;2023-05-07T07:27:36;100651.59;;;16.58;78.78
69173;BME280;56280;49.662;8.408;2023-05-07T07:30:01;100662.22;;;16.76;77.95
69173;BME280;56280;49.662;8.408;2023-05-07T07:32:27;100660.38;;;16.77;79.43
69173;BME280;56280;49.662;8.408;2023-05-07T07:34:52;100644.72;;;16.64;78.64
69173;BME280;56280;49.662;8.408;2023-05-07T07:37:17;100632.25;;;16.55;78.70
69173;BME280;56280;49.662;8.408;2023-05-07T07:39:42;100675.66;;;17.19;78.56
69173;BME280;56280;49.662;8.408;2023-05-07T07:42:08;100674.31;;;17.07;76.17
69173;BME280;56280;49.662;8.408;2023-05-07T07:44:33;100665.84;;;16.93;78.51
69173;BME280;56280;49.662;8.408;2023-05-07T07:46:58;100666.44;;;17.22;76.93
69173;BME280;56280;49.662;8.408;2023-05-07T07:49:24;100673.38;;;17.33;76.45
69173;BME280;56280;49.662;8.408;2023-05-07T07:51:49;100677.91;;;17.40;77.18
69173;BME280;56280;49.662;8.408;2023-05-07T07:54:14;100668.44;;;17.11;76.16
69173;BME280;56280;49.662;8.408;2023-05-07T07:56:40;100679.72;;;17.23;76.25
69173;BME280;56280;49.662;8.408;2023-05-07T07:59:05;100675.88;;;17.34;76.77
69173;BME280;56280;49.662;8.408;2023-05-07T08:01:31;100680.34;;;17.09;75.05
69173;BME280;56280;49.662;8.408;2023-05-07T08:03:56;100668.03;;;16.98;76.27
69173;BME280;56280;49.662;8.408;2023-05-07T08:06:23;100664.34;;;16.91;75.89
69173;BME280;56280;49.662;8.408;2023-05-07T08:08:49;100669.59;;;17.09;77.36
69173;BME280;56280;49.662;8.408;2023-05-07T08:11:14;100672.13;;;17.10;76.09
69173;BME280;56280;49.662;8.408;2023-05-07T08:13:39;100671.25;;;17.02;75.19
69173;BME280;56280;49.662;8.408;2023-05-07T08:16:05;100687.91;;;17.13;76.49
69173;BME280;56280;49.662;8.408;2023-05-07T08:18:30;100673.88;;;17.44;76.20
69173;BME280;56280;49.662;8.408;2023-05-07T08:20:56;100676.75;;;17.59;74.99
69173;BME280;56280;49.662;8.408;2023-05-07T08:23:21;100685.03;;;17.74;74.24
69173;BME280;56280;49.662;8.408;2023-05-07T08:25:47;100665.53;;;17.72;74.85
69173;BME280;56280;49.662;8.408;2023-05-07T08:28:12;100682.03;;;17.94;73.03
69173;BME280;56280;49.662;8.408;2023-05-07T08:30:37;100674.66;;;17.96;73.36
69173;BME280;56280;49.662;8.408;2023-05-07T08:33:03;100688.41;;;17.93;72.46
69173;BME280;56280;49.662;8.408;2023-05-07T08:35:28;100674.13;;;18.09;73.81
69173;BME280;56280;49.662;8.408;2023-05-07T08:37:53;100679.66;;;18.48;73.25
69173;BME280;56280;49.662;8.408;2023-05-07T08:40:19;100683.66;;;18.44;72.06
69173;BME280;56280;49.662;8.408;2023-05-07T08:42:48;100679.69;;;17.99;70.58
69173;BME280;56280;49.662;8.408;2023-05-07T08:45:14;100688.56;;;18.08;73.02
69173;BME280;56280;49.662;8.408;2023-05-07T08:47:43;100695.47;;;18.27;71.82
69173;BME280;56280;49.662;8.408;2023-05-07T08:50:12;100675.91;;;18.57;68.48
69173;BME280;56280;49.662;8.408;2023-05-07T08:52:39;100668.16;;;18.71;68.73
69173;BME280;56280;49.662;8.408;2023-05-07T08:55:05;100692.16;;;18.81;69.42
69173;BME280;56280;49.662;8.408;2023-05-07T08:57:31;100690.13;;;18.83;70.40
69173;BME280;56280;49.662;8.408;2023-05-07T08:59:56;100688.97;;;19.56;70.43
69173;BME280;56280;49.662;8.408;2023-05-07T09:02:22;100694.78;;;19.37;67.64
69173;BME280;56280;49.662;8.408;2023-05-07T09:04:47;100681.63;;;19.10;68.12
69173;BME280;56280;49.662;8.408;2023-05-07T09:07:13;100689.22;;;19.38;66.57
69173;BME280;56280;49.662;8.408;2023-05-07T09:09:38;100690.31;;;19.52;66.16
69173;BME280;56280;49.662;8.408;2023-05-07T09:12:03;100690.16;;;19.22;69.33
69173;BME280;56280;49.662;8.408;2023-05-07T09:14:29;100681.19;;;18.99;68.02
69173;BME280;56280;49.662;8.408;2023-05-07T09:16:55;100668.16;;;18.71;68.89
69173;BME280;56280;49.662;8.408;2023-05-07T09:19:24;100686.59;;;18.90;68.84
69173;BME280;56280;49.662;8.408;2023-05-07T09:21:57;100684.25;;;18.79;67.87
69173;BME280;56280;49.662;8.408;2023-05-07T09:24:23;100693.16;;;18.88;68.47
69173;BME280;56280;49.662;8.408;2023-05-07T09:26:48;100673.56;;;19.10;69.08
69173;BME280;56280;49.662;8.408;2023-05-07T09:29:15;100687.66;;;19.21;68.33
69173;BME280;56280;49.662;8.408;2023-05-07T09:31:40;100690.66;;;19.26;66.22
69173;BME280;56280;49.662;8.408;2023-05-07T09:34:06;100687.91;;;19.34;68.14
69173;BME280;56280;49.662;8.408;2023-05-07T09:36:31;100692.78;;;19.39;69.51
69173;BME280;56280;49.662;8.408;2023-05-07T09:38:59;100694.25;;;19.41;67.57
69173;BME280;56280;49.662;8.408;2023-05-07T09:41:26;100698.63;;;19.42;65.97
69173;BME280;56280;49.662;8.408;2023-05-07T09:43:54;100682.19;;;19.60;66.40
69173;BME280;56280;49.662;8.408;2023-05-07T09:46:25;100683.81;;;19.46;65.52
69173;BME280;56280;49.662;8.408;2023-05-07T09:48:52;100687.66;;;19.21;66.19
69173;BME280;56280;49.662;8.408;2023-05-07T09:51:28;100677.75;;;19.44;70.89
69173;BME280;56280;49.662;8.408;2023-05-07T09:53:56;100671.63;;;19.82;67.59
69173;BME280;56280;49.662;8.408;2023-05-07T09:56:22;100666.59;;;20.17;66.42
69173;BME280;56280;49.662;8.408;2023-05-07T09:58:48;100661.72;;;19.74;68.15
69173;BME280;56280;49.662;8.408;2023-05-07T10:01:16;100676.78;;;19.60;64.18
69173;BME280;56280;49.662;8.408;2023-05-07T10:03:43;100659.84;;;19.75;65.85
69173;BME280;56280;49.662;8.408;2023-05-07T10:06:10;100658.84;;;19.99;62.23
69173;BME280;56280;49.662;8.408;2023-05-07T10:08:36;100656.09;;;20.22;61.95
69173;BME280;56280;49.662;8.408;2023-05-07T10:11:04;100658.06;;;20.28;59.15
69173;BME280;56280;49.662;8.408;2023-05-07T10:13:29;100671.88;;;20.63;62.00
69173;BME280;56280;49.662;8.408;2023-05-07T10:15:55;100655.00;;;20.31;60.16
69173;BME280;56280;49.662;8.408;2023-05-07T10:18:21;100667.47;;;20.17;63.07
69173;BME280;56280;49.662;8.408;2023-05-07T10:20:55;100639.50;;;20.78;61.92
69173;BME280;56280;49.662;8.408;2023-05-07T10:23:23;100662.63;;;20.57;62.04
69173;BME280;56280;49.662;8.408;2023-05-07T10:25:49;100639.09;;;20.36;62.03
69173;BME280;56280;49.662;8.408;2023-05-07T10:28:16;100634.75;;;19.97;61.91
69173;BME280;56280;49.662;8.408;2023-05-07T10:31:02;100669.91;;;20.42;63.65
69173;BME280;56280;49.662;8.408;2023-05-07T10:33:33;100658.50;;;20.17;60.85
69173;BME280;56280;49.662;8.408;2023-05-07T10:36:01;100632.00;;;20.20;63.90
69173;BME280;56280;49.662;8.408;2023-05-07T10:38:29;100664.25;;;19.99;63.08
69173;BME280;56280;49.662;8.408;2023-05-07T10:40:54;100646.78;;;20.10;64.86
69173;BME280;56280;49.662;8.408;2023-05-07T10:43:20;100656.97;;;20.37;62.44
69173;BME280;56280;49.662;8.408;2023-05-07T10:46:15;100661.81;;;20.57;62.50
69173;BME280;56280;49.662;8.408;2023-05-07T10:51:29;100650.06;;;21.09;62.27
69173;BME280;56280;49.662;8.408;2023-05-07T10:56:35;100644.38;;;20.30;64.35
69173;BME280;56280;49.662;8.408;2023-05-07T11:02:05;100622.44;;;20.33;65.53
69173;BME280;56280;49.662;8.408;2023-05-07T11:04:33;100639.66;;;20.47;68.17
69173;BME280;56280;49.662;8.408;2023-05-07T11:15:10;100617.69;;;20.80;63.70
69173;BME280;56280;49.662;8.408;2023-05-07T11:17:55;100628.34;;;21.18;64.66
69173;BME280;56280;49.662;8.408;2023-05-07T11:20:44;100622.81;;;21.26;64.73
69173;BME280;56280;49.662;8.408;2023-05-07T11:26:06;100618.63;;;21.60;60.40
69173;BME280;56280;49.662;8.408;2023-05-07T11:28:40;100632.88;;;21.32;59.73
69173;BME280;56280;49.662;8.408;2023-05-07T11:31:06;100619.78;;;21.14;62.35
69173;BME280;56280;49.662;8.408;2023-05-07T11:33:31;100631.88;;;21.55;62.24
69173;BME280;56280;49.662;8.408;2023-05-07T11:35:57;100621.16;;;21.46;59.93
69173;BME280;56280;49.662;8.408;2023-05-07T11:38:25;100622.66;;;21.71;61.36
69173;BME280;56280;49.662;8.408;2023-05-07T11:40:52;100627.47;;;21.97;60.69
69173;BME280;56280;49.662;8.408;2023-05-07T11:43:18;100618.16;;;22.06;62.57
69173;BME280;56280;49.662;8.408;2023-05-07T11:45:44;100608.72;;;21.67;57.90
69173;BME280;56280;49.662;8.408;2023-05-07T11:48:12;100616.28;;;21.78;65.13
69173;BME280;56280;49.662;8.408;2023-05-07T11:50:52;100603.69;;;21.64;61.94
69173;BME280;56280;49.662;8.408;2023-05-07T11:53:19;100622.94;;;21.54;62.40
69173;BME280;56280;49.662;8.408;2023-05-07T11:55:45;100605.03;;;21.17;60.66
69173;BME280;56280;49.662;8.408;2023-05-07T11:58:12;100600.31;;;21.40;60.07
69173;BME280;56280;49.662;8.408;2023-05-07T12:00:38;100603.91;;;21.91;59.38
69173;BME280;56280;49.662;8.408;2023-05-07T12:03:06;100596.31;;;21.79;59.33
69173;BME280;56280;49.662;8.408;2023-05-07T12:05:31;100591.41;;;22.18;58.01
69173;BME280;56280;49.662;8.408;2023-05-07T12:07:57;100592.69;;;21.94;56.34
69173;BME280;56280;49.662;8.408;2023-05-07T12:10:23;100589.72;;;22.17;63.14
69173;BME280;56280;49.662;8.408;2023-05-07T12:12:50;100591.00;;;21.93;60.42
69173;BME280;56280;49.662;8.408;2023-05-07T12:15:16;100589.69;;;22.10;60.56
69173;BME280;56280;49.662;8.408;2023-05-07T12:17:42;100595.75;;;22.12;56.81
69173;BME280;56280;49.662;8.408;2023-05-07T12:20:08;100601.72;;;22.36;57.63
69173;BME280;56280;49.662;8.408;2023-05-07T12:22:34;100606.78;;;22.46;61.60
69173;BME280;56280;49.662;8.408;2023-05-07T12:25:00;100594.81;;;22.27;59.74
69173;BME280;56280;49.662;8.408;2023-05-07T12:27:26;100583.19;;;22.81;60.61
69173;BME280;56280;49.662;8.408;2023-05-07T12:29:51;100591.13;;;22.41;59.14
69173;BME280;56280;49.662;8.408;2023-05-07T12:32:18;100578.09;;;22.23;57.62
69173;BME280;56280;49.662;8.408;2023-05-07T12:34:44;100566.47;;;22.22;58.64
69173;BME280;56280;49.662;8.408;2023-05-07T12:37:10;100577.84;;;22.11;55.87
69173;BME280;56280;49.662;8.408;2023-05-07T12:39:35;100583.41;;;22.03;57.24
69173;BME280;56280;49.662;8.408;2023-05-07T12:42:01;100582.34;;;22.04;57.57
69173;BME280;56280;49.662;8.408;2023-05-07T12:44:33;100566.38;;;22.09;54.09
69173;BME280;56280;49.662;8.408;2023-05-07T12:47:01;100582.22;;;22.47;56.63
69173;BME280;56280;49.662;8.408;2023-05-07T12:49:27;100569.56;;;22.54;55.35
69173;BME280;56280;49.662;8.408;2023-05-07T12:51:53;100570.25;;;22.28;54.22
69173;BME280;56280;49.662;8.408;2023-05-07T12:54:32;100565.19;;;22.53;56.73
69173;BME280;56280;49.662;8.408;2023-05-07T12:57:02;100567.94;;;22.67;54.73
69173;BME280;56280;49.662;8.408;2023-05-07T12:59:41;100565.72;;;22.77;57.25
69173;BME280;56280;49.662;8.408;2023-05-07T13:02:07;100565.13;;;22.88;57.50
69173;BME280;56280;49.662;8.408;2023-05-07T13:04:33;100552.16;;;22.70;56.39